createdAt,value
2019-04-03T00:01:39.453Z,956.15
2019-04-03T00:04:05.777Z,956.17
2019-04-03T00:06:32.126Z,956.21
2019-04-03T00:08:58.468Z,956.19
2019-04-03T00:11:24.775Z,956.19
2019-04-03T00:13:51.106Z,956.03
2019-04-03T00:16:17.538Z,956.10
2019-04-03T00:18:43.780Z,956.19
2019-04-03T00:21:10.139Z,956.11
2019-04-03T00:23:36.437Z,956.00
2019-04-03T00:26:02.761Z,956.10
2019-04-03T00:28:29.129Z,956.03
2019-04-03T00:30:55.464Z,956.02
2019-04-03T00:33:23.370Z,956.09
2019-04-03T00:35:48.163Z,955.99
2019-04-03T00:38:14.637Z,956.02
2019-04-03T00:40:40.811Z,956.04
2019-04-03T00:43:07.152Z,956.00
2019-04-03T00:45:33.633Z,955.93
2019-04-03T00:47:59.877Z,955.91
2019-04-03T00:50:26.967Z,955.89
2019-04-03T00:52:52.499Z,955.85
2019-04-03T00:55:18.837Z,955.86
2019-04-03T00:57:45.194Z,955.88
2019-04-03T01:00:11.627Z,955.84
2019-04-03T01:02:37.835Z,955.88
2019-04-03T01:05:04.189Z,955.85
2019-04-03T01:07:30.506Z,955.85
2019-04-03T01:09:59.073Z,955.84
2019-04-03T01:12:23.149Z,955.87
2019-04-03T01:14:49.555Z,955.80
2019-04-03T01:17:15.851Z,955.76
2019-04-03T01:19:42.322Z,955.73
2019-04-03T01:22:08.495Z,955.87
2019-04-03T01:24:34.806Z,955.77
2019-04-03T01:27:01.293Z,955.77
2019-04-03T01:29:27.513Z,955.76
2019-04-03T01:31:53.808Z,955.77
2019-04-03T01:34:20.112Z,955.68
2019-04-03T01:36:46.530Z,955.70
2019-04-03T01:39:12.768Z,955.64
2019-04-03T01:41:39.203Z,955.61
2019-04-03T01:44:05.391Z,955.65
2019-04-03T01:46:31.765Z,955.62
2019-04-03T01:48:58.441Z,955.59
2019-04-03T01:51:24.482Z,955.63
2019-04-03T01:53:50.823Z,955.52
2019-04-03T01:56:17.141Z,955.49
2019-04-03T01:58:43.472Z,955.44
2019-04-03T02:01:09.930Z,955.48
2019-04-03T02:03:36.146Z,955.46
2019-04-03T02:06:02.643Z,955.50
2019-04-03T02:08:28.801Z,955.60
2019-04-03T02:10:55.125Z,955.45
2019-04-03T02:13:21.990Z,955.52
2019-04-03T02:15:47.754Z,955.42
2019-04-03T02:18:14.061Z,955.51
2019-04-03T02:20:40.424Z,955.48
2019-04-03T02:23:06.743Z,955.45
2019-04-03T02:25:33.080Z,955.42
2019-04-03T02:27:59.428Z,955.41
2019-04-03T02:30:25.760Z,955.48
2019-04-03T02:32:55.071Z,955.47
2019-04-03T02:35:18.473Z,955.43
2019-04-03T02:37:48.249Z,955.52
2019-04-03T02:40:11.124Z,955.48
2019-04-03T02:42:40.604Z,955.43
2019-04-03T02:45:03.810Z,955.49
2019-04-03T02:47:32.541Z,955.43
2019-04-03T02:49:56.790Z,955.42
2019-04-03T02:52:25.369Z,955.48
2019-04-03T02:54:49.208Z,955.43
2019-04-03T02:57:17.372Z,955.51
2019-04-03T02:59:42.020Z,955.57
2019-04-03T03:02:11.391Z,955.38
2019-04-03T03:04:34.463Z,955.45
2019-04-03T03:07:03.351Z,955.45
2019-04-03T03:09:27.364Z,955.47
2019-04-03T03:11:56.294Z,955.49
2019-04-03T03:14:19.838Z,955.48
2019-04-03T03:16:49.327Z,955.53
2019-04-03T03:19:12.499Z,955.55
2019-04-03T03:21:38.824Z,955.51
2019-04-03T03:24:05.394Z,955.54
2019-04-03T03:26:31.499Z,955.53
2019-04-03T03:29:02.772Z,955.59
2019-04-03T03:31:57.652Z,955.57
2019-04-03T03:33:50.929Z,955.57
2019-04-03T03:36:22.647Z,955.54
2019-04-03T03:38:43.073Z,955.52
2019-04-03T03:41:09.408Z,955.52
2019-04-03T03:43:38.219Z,955.58
2019-04-03T03:46:02.147Z,955.57
2019-04-03T03:48:28.524Z,955.55
2019-04-03T03:50:57.138Z,955.58
2019-04-03T03:53:21.218Z,955.52
2019-04-03T03:55:47.725Z,955.54
2019-04-03T03:58:14.146Z,955.48
2019-04-03T04:00:40.118Z,955.48
2019-04-03T04:03:08.532Z,955.55
2019-04-03T04:05:33.756Z,955.53
2019-04-03T04:08:00.104Z,955.60
2019-04-03T04:10:26.648Z,955.61
2019-04-03T04:12:52.718Z,955.63
2019-04-03T04:15:19.066Z,955.58
2019-04-03T04:17:48.637Z,955.66
2019-04-03T04:20:11.695Z,955.65
2019-04-03T04:22:38.055Z,955.62
2019-04-03T04:25:04.361Z,955.73
2019-04-03T04:27:33.431Z,955.74
2019-04-03T04:29:56.988Z,955.70
2019-04-03T04:32:23.317Z,955.68
2019-04-03T04:34:50.494Z,955.70
2019-04-03T04:37:15.954Z,955.61
2019-04-03T04:39:42.286Z,955.62
2019-04-03T04:42:08.596Z,955.68
2019-04-03T04:44:34.942Z,955.67
2019-04-03T04:47:01.515Z,955.68
2019-04-03T04:49:27.688Z,955.71
2019-04-03T04:51:56.585Z,955.68
2019-04-03T04:54:20.289Z,955.70
2019-04-03T04:56:46.592Z,955.73
2019-04-03T04:59:13.570Z,955.67
2019-04-03T05:01:39.609Z,955.73
2019-04-03T05:04:05.652Z,955.71
2019-04-03T05:06:31.955Z,955.70
2019-04-03T05:08:58.406Z,955.66
2019-04-03T05:11:24.905Z,955.74
2019-04-03T05:13:51.232Z,955.70
2019-04-03T05:16:19.763Z,955.73
2019-04-03T05:18:43.770Z,955.75
2019-04-03T05:21:10.033Z,955.73
2019-04-03T05:23:36.543Z,955.70
2019-04-03T05:26:02.702Z,955.68
2019-04-03T05:28:28.994Z,955.66
2019-04-03T05:30:55.528Z,955.71
2019-04-03T05:33:21.633Z,955.66
2019-04-03T05:35:47.944Z,955.61
2019-04-03T05:38:14.556Z,955.57
2019-04-03T05:40:40.624Z,955.67
2019-04-03T05:43:07.077Z,955.61
2019-04-03T05:45:35.393Z,955.59
2019-04-03T05:47:59.608Z,955.59
2019-04-03T05:50:26.438Z,955.58
2019-04-03T05:52:52.272Z,955.55
2019-04-03T05:55:18.814Z,955.57
2019-04-03T05:57:45.755Z,955.48
2019-04-03T06:00:11.463Z,955.56
2019-04-03T06:02:37.602Z,955.51
2019-04-03T06:05:06.367Z,955.50
2019-04-03T06:07:30.253Z,955.49
2019-04-03T06:09:59.004Z,955.51
2019-04-03T06:12:23.082Z,955.49
2019-04-03T06:14:50.470Z,955.39
2019-04-03T06:17:15.590Z,955.44
2019-04-03T06:19:42.022Z,955.39
2019-04-03T06:22:09.997Z,955.46
2019-04-03T06:24:34.726Z,955.38
2019-04-03T06:27:01.028Z,955.46
2019-04-03T06:29:27.596Z,955.40
2019-04-03T06:31:53.938Z,955.47
2019-04-03T06:34:20.369Z,955.38
2019-04-03T06:36:46.588Z,955.36
2019-04-03T06:39:13.250Z,955.34
2019-04-03T06:41:41.642Z,955.45
2019-04-03T06:44:05.701Z,955.43
2019-04-03T06:46:32.223Z,955.38
2019-04-03T06:48:58.335Z,955.30
2019-04-03T06:51:24.683Z,955.37
2019-04-03T06:53:50.972Z,955.26
2019-04-03T06:56:17.367Z,955.34
2019-04-03T06:58:44.738Z,955.30
2019-04-03T07:01:10.002Z,955.30
2019-04-03T07:03:36.310Z,955.34
2019-04-03T07:06:02.663Z,955.32
2019-04-03T07:08:34.622Z,955.42
2019-04-03T07:10:55.652Z,955.41
2019-04-03T07:13:21.804Z,955.38
2019-04-03T07:15:48.109Z,955.26
2019-04-03T07:18:14.416Z,955.23
2019-04-03T07:20:40.886Z,955.28
2019-04-03T07:23:07.275Z,955.34
2019-04-03T07:25:34.419Z,955.28
2019-04-03T07:27:59.728Z,955.28
2019-04-03T07:30:26.062Z,955.24
2019-04-03T07:32:52.426Z,955.39
2019-04-03T07:35:18.778Z,955.36
2019-04-03T07:37:45.089Z,955.45
2019-04-03T07:40:11.458Z,955.30
2019-04-03T07:42:37.859Z,955.41
2019-04-03T07:45:04.120Z,955.34
2019-04-03T07:47:30.455Z,955.33
2019-04-03T07:49:56.769Z,955.50
2019-04-03T07:52:23.101Z,955.44
2019-04-03T07:54:51.848Z,955.43
2019-04-03T07:57:16.402Z,955.31
2019-04-03T07:59:42.122Z,955.31
2019-04-03T08:02:10.128Z,955.28
2019-04-03T08:04:34.778Z,955.30
2019-04-03T08:07:01.279Z,955.36
2019-04-03T08:09:27.412Z,955.23
2019-04-03T08:11:53.786Z,955.37
2019-04-03T08:14:20.294Z,955.17
2019-04-03T08:16:48.159Z,955.13
2019-04-03T08:19:12.758Z,955.33
2019-04-03T08:21:39.096Z,955.32
2019-04-03T08:24:07.445Z,955.31
2019-04-03T08:26:31.792Z,955.15
2019-04-03T08:29:00.708Z,955.29
2019-04-03T08:31:24.459Z,955.22
2019-04-03T08:33:50.801Z,955.20
2019-04-03T08:36:24.009Z,955.13
2019-04-03T08:38:44.909Z,955.08
2019-04-03T08:41:10.037Z,955.12
2019-04-03T08:43:36.670Z,955.14
2019-04-03T08:46:02.847Z,955.07
2019-04-03T08:48:29.019Z,954.99
2019-04-03T08:50:57.243Z,955.00
2019-04-03T08:53:21.698Z,954.97
2019-04-03T08:55:48.011Z,955.03
2019-04-03T08:58:14.336Z,955.00
2019-04-03T09:00:40.782Z,954.90
2019-04-03T09:03:07.043Z,954.93
2019-04-03T09:05:33.369Z,954.90
2019-04-03T09:07:59.833Z,954.85
2019-04-03T09:10:26.127Z,954.79
2019-04-03T09:12:52.513Z,954.84
2019-04-03T09:15:19.118Z,954.75
2019-04-03T09:17:45.143Z,954.74
2019-04-03T09:20:13.449Z,954.67
2019-04-03T09:22:37.855Z,954.64
2019-04-03T09:25:04.307Z,954.55
2019-04-03T09:27:30.642Z,954.60
2019-04-03T09:29:57.175Z,954.57
2019-04-03T09:32:23.471Z,954.40
2019-04-03T09:34:49.767Z,954.55
2019-04-03T09:37:18.155Z,954.42
2019-04-03T09:39:44.441Z,954.41
2019-04-03T09:42:08.728Z,954.40
2019-04-03T09:44:35.332Z,954.34
2019-04-03T09:47:03.445Z,954.29
2019-04-03T09:49:27.794Z,954.22
2019-04-03T09:51:54.030Z,954.25
2019-04-03T09:54:20.579Z,954.11
2019-04-03T09:56:57.823Z,954.02
2019-04-03T09:59:15.402Z,954.00
2019-04-03T10:01:39.391Z,954.10
2019-04-03T10:04:05.824Z,954.01
2019-04-03T10:06:32.291Z,953.93
2019-04-03T10:08:58.488Z,953.87
2019-04-03T10:11:24.803Z,953.92
2019-04-03T10:13:51.108Z,953.69
2019-04-03T10:16:17.434Z,953.78
2019-04-03T10:18:43.760Z,953.73
2019-04-03T10:21:10.084Z,953.59
2019-04-03T10:23:36.559Z,953.54
2019-04-03T10:26:02.783Z,953.60
2019-04-03T10:28:29.089Z,953.58
2019-04-03T10:30:55.426Z,953.54
2019-04-03T10:33:21.782Z,953.44
2019-04-03T10:35:48.124Z,953.47
2019-04-03T10:38:15.965Z,953.61
2019-04-03T10:40:40.831Z,953.42
2019-04-03T10:43:07.195Z,953.46
2019-04-03T10:45:33.770Z,953.32
2019-04-03T10:48:00.094Z,953.27
2019-04-03T10:50:26.427Z,953.23
2019-04-03T10:52:52.763Z,953.24
2019-04-03T10:55:19.203Z,953.34
2019-04-03T10:57:45.487Z,953.18
2019-04-03T11:00:11.827Z,953.18
2019-04-03T11:02:38.125Z,953.11
2019-04-03T11:05:04.500Z,953.06
2019-04-03T11:07:30.839Z,952.96
2019-04-03T11:09:57.531Z,953.11
2019-04-03T11:12:23.485Z,952.90
2019-04-03T11:14:49.820Z,952.90
2019-04-03T11:17:18.116Z,952.87
2019-04-03T11:19:44.219Z,952.88
2019-04-03T11:22:08.826Z,952.67
2019-04-03T11:24:37.782Z,952.76
2019-04-03T11:27:01.513Z,952.64
2019-04-03T11:29:27.880Z,952.67
2019-04-03T11:31:54.416Z,952.63
2019-04-03T11:34:20.471Z,952.51
2019-04-03T11:36:47.203Z,952.56
2019-04-03T11:39:15.652Z,952.52
2019-04-03T11:41:39.432Z,952.61
2019-04-03T11:44:05.878Z,952.43
2019-04-03T11:46:32.206Z,952.53
2019-04-03T11:48:58.527Z,952.46
2019-04-03T11:51:24.840Z,952.52
2019-04-03T11:53:51.199Z,952.42
2019-04-03T11:56:17.555Z,952.29
2019-04-03T11:58:44.233Z,952.25
2019-04-03T12:01:10.299Z,952.30
2019-04-03T12:03:36.602Z,952.21
2019-04-03T12:06:02.959Z,952.19
2019-04-03T12:08:29.467Z,952.19
2019-04-03T12:10:55.590Z,952.12
2019-04-03T12:13:22.079Z,952.14
2019-04-03T12:15:48.282Z,952.15
2019-04-03T12:18:14.591Z,952.04
2019-04-03T12:20:43.387Z,952.01
2019-04-03T12:23:07.251Z,952.06
2019-04-03T12:25:34.429Z,951.98
2019-04-03T12:27:59.940Z,952.09
2019-04-03T12:30:26.837Z,951.96
2019-04-03T12:32:52.618Z,951.81
2019-04-03T12:35:18.950Z,951.87
2019-04-03T12:37:45.748Z,951.73
2019-04-03T12:40:11.699Z,951.96
2019-04-03T12:42:38.044Z,951.82
2019-04-03T12:45:04.375Z,951.75
2019-04-03T12:47:30.681Z,951.97
2019-04-03T12:49:57.326Z,951.70
2019-04-03T12:52:23.465Z,951.73
2019-04-03T12:54:53.232Z,951.68
2019-04-03T12:57:16.138Z,951.66
2019-04-03T12:59:42.531Z,951.78
2019-04-03T13:02:08.794Z,951.82
2019-04-03T13:04:35.132Z,951.70
2019-04-03T13:07:04.195Z,951.66
2019-04-03T13:09:27.812Z,951.61
2019-04-03T13:11:54.198Z,951.53
2019-04-03T13:14:25.223Z,951.59
2019-04-03T13:16:47.608Z,951.60
2019-04-03T13:19:15.481Z,951.59
2019-04-03T13:21:39.834Z,951.66
2019-04-03T13:24:06.244Z,951.52
2019-04-03T13:26:32.708Z,951.63
2019-04-03T13:28:59.048Z,951.57
2019-04-03T13:31:25.204Z,951.55
2019-04-03T13:33:51.219Z,951.42
2019-04-03T13:36:18.751Z,951.65
2019-04-03T13:38:43.906Z,951.54
2019-04-03T13:41:11.273Z,951.43
2019-04-03T13:43:36.916Z,951.35
2019-04-03T13:46:04.639Z,951.59
2019-04-03T13:48:29.700Z,951.51
2019-04-03T13:50:56.196Z,951.55
2019-04-03T13:53:24.617Z,951.45
2019-04-03T13:55:48.240Z,951.32
2019-04-03T13:58:14.596Z,951.41
2019-04-03T14:00:40.938Z,951.41
2019-04-03T14:03:07.243Z,951.38
2019-04-03T14:05:33.832Z,951.32
2019-04-03T14:08:00.290Z,951.36
2019-04-03T14:10:26.938Z,951.42
2019-04-03T14:12:52.570Z,951.50
2019-04-03T14:15:20.337Z,951.45
2019-04-03T14:17:55.464Z,951.35
2019-04-03T14:20:11.994Z,951.39
2019-04-03T14:22:38.271Z,951.43
2019-04-03T14:25:12.751Z,951.30
2019-04-03T14:27:31.282Z,951.23
2019-04-03T14:29:58.769Z,951.26
2019-04-03T14:32:23.165Z,951.31
2019-04-03T14:34:49.505Z,951.32
2019-04-03T14:37:15.840Z,951.23
2019-04-03T14:39:42.146Z,951.16
2019-04-03T14:42:08.495Z,951.25
2019-04-03T14:44:35.116Z,951.25
2019-04-03T14:47:01.194Z,951.24
2019-04-03T14:49:28.696Z,951.14
2019-04-03T14:51:54.026Z,951.09
2019-04-03T14:54:20.174Z,951.14
2019-04-03T14:56:46.926Z,951.32
2019-04-03T14:59:14.059Z,951.15
2019-04-03T15:01:39.631Z,951.12
2019-04-03T15:04:05.610Z,951.11
2019-04-03T15:06:32.208Z,951.26
2019-04-03T15:08:58.265Z,951.20
2019-04-03T15:11:24.597Z,951.22
2019-04-03T15:13:51.487Z,951.16
2019-04-03T15:16:17.439Z,951.14
2019-04-03T15:18:43.741Z,951.19
2019-04-03T15:21:09.969Z,951.14
2019-04-03T15:23:40.821Z,951.30
2019-04-03T15:26:02.647Z,951.13
2019-04-03T15:28:30.418Z,951.20
2019-04-03T15:30:55.348Z,951.19
2019-04-03T15:33:24.326Z,951.19
2019-04-03T15:35:48.995Z,951.31
2019-04-03T15:38:18.096Z,951.28
2019-04-03T15:40:41.885Z,951.19
2019-04-03T15:43:10.858Z,951.26
2019-04-03T15:45:34.399Z,951.32
2019-04-03T15:48:00.693Z,951.35
2019-04-03T15:50:28.022Z,951.31
2019-04-03T15:52:53.425Z,951.33
2019-04-03T15:55:19.810Z,951.44
2019-04-03T15:57:46.079Z,951.30
2019-04-03T16:00:12.576Z,951.36
2019-04-03T16:02:39.198Z,951.35
2019-04-03T16:05:05.143Z,951.38
2019-04-03T16:07:32.848Z,951.45
2019-04-03T16:09:57.940Z,951.47
2019-04-03T16:12:24.169Z,951.49
2019-04-03T16:14:51.343Z,951.45
2019-04-03T16:17:16.860Z,951.39
2019-04-03T16:19:44.597Z,951.40
2019-04-03T16:22:09.514Z,951.44
2019-04-03T16:24:36.106Z,951.51
2019-04-03T16:27:02.158Z,951.48
2019-04-03T16:29:30.230Z,951.45
2019-04-03T16:31:55.281Z,951.45
2019-04-03T16:34:21.170Z,951.49
2019-04-03T16:36:48.671Z,951.46
2019-04-03T16:39:13.799Z,951.44
2019-04-03T16:41:41.000Z,951.54
2019-04-03T16:44:06.459Z,951.53
2019-04-03T16:46:32.842Z,951.46
2019-04-03T16:48:59.142Z,951.46
2019-04-03T16:51:25.880Z,951.56
2019-04-03T16:53:51.888Z,951.53
2019-04-03T16:56:18.957Z,951.52
2019-04-03T16:58:44.559Z,951.58
2019-04-03T17:01:12.866Z,951.59
2019-04-03T17:03:37.689Z,951.59
2019-04-03T17:06:03.759Z,951.64
2019-04-03T17:08:29.947Z,951.65
2019-04-03T17:10:56.251Z,951.66
2019-04-03T17:13:22.579Z,951.74
2019-04-03T17:15:48.913Z,951.73
2019-04-03T17:18:17.183Z,951.77
2019-04-03T17:20:41.734Z,951.82
2019-04-03T17:23:10.742Z,951.75
2019-04-03T17:25:46.907Z,951.85
2019-04-03T17:28:06.582Z,951.89
2019-04-03T17:30:28.379Z,951.91
2019-04-03T17:32:54.380Z,951.89
2019-04-03T17:35:20.717Z,951.91
2019-04-03T17:37:47.108Z,951.98
2019-04-03T17:40:13.353Z,952.05
2019-04-03T17:42:40.195Z,952.00
2019-04-03T17:45:06.154Z,952.03
2019-04-03T17:47:32.426Z,952.09
2019-04-03T17:49:59.299Z,952.15
2019-04-03T17:52:25.178Z,952.17
2019-04-03T17:54:51.494Z,952.15
2019-04-03T17:57:17.897Z,952.22
2019-04-03T17:59:44.205Z,952.17
2019-04-03T18:02:10.517Z,952.24
2019-04-03T18:04:36.847Z,952.28
2019-04-03T18:07:03.179Z,952.36
2019-04-03T18:09:29.512Z,952.35
2019-04-03T18:11:57.979Z,952.39
2019-04-03T18:14:22.197Z,952.45
2019-04-03T18:16:48.506Z,952.53
2019-04-03T18:19:14.816Z,952.53
2019-04-03T18:21:41.173Z,952.57
2019-04-03T18:24:07.505Z,952.54
2019-04-03T18:26:33.809Z,952.55
2019-04-03T18:29:00.138Z,952.59
2019-04-03T18:31:26.473Z,952.56
2019-04-03T18:33:52.783Z,952.63
2019-04-03T18:36:20.385Z,952.64
2019-04-03T18:38:45.475Z,952.60
2019-04-03T18:41:11.784Z,952.60
2019-04-03T18:43:38.182Z,952.65
2019-04-03T18:46:04.615Z,952.59
2019-04-03T18:48:30.968Z,952.54
2019-04-03T18:50:57.268Z,952.52
2019-04-03T18:53:23.590Z,952.54
2019-04-03T18:55:49.939Z,952.69
2019-04-03T18:58:16.277Z,952.56
2019-04-03T19:00:42.597Z,952.53
2019-04-03T19:03:08.901Z,952.61
2019-04-03T19:05:35.243Z,952.53
2019-04-03T19:08:12.427Z,952.58
2019-04-03T19:10:27.893Z,952.58
2019-04-03T19:12:54.220Z,952.55
2019-04-03T19:15:20.590Z,952.61
2019-04-03T19:17:58.995Z,952.51
2019-04-03T19:20:13.207Z,952.52
2019-04-03T19:22:39.523Z,952.52
2019-04-03T19:25:05.843Z,952.62
2019-04-03T19:27:33.023Z,952.59
2019-04-03T19:29:58.484Z,952.59
2019-04-03T19:32:24.809Z,952.59
2019-04-03T19:34:52.395Z,952.62
2019-04-03T19:37:17.562Z,952.60
2019-04-03T19:39:43.926Z,952.67
2019-04-03T19:42:10.265Z,952.59
2019-04-03T19:44:36.567Z,952.60
2019-04-03T19:47:02.885Z,952.64
2019-04-03T19:49:29.223Z,952.68
2019-04-03T19:51:55.562Z,952.65
2019-04-03T19:54:21.887Z,952.71
2019-04-03T19:56:48.213Z,952.65
2019-04-03T19:59:14.578Z,952.67
2019-04-03T20:01:40.920Z,952.67
2019-04-03T20:04:07.309Z,952.67
2019-04-03T20:06:33.741Z,952.68
2019-04-03T20:09:00.871Z,952.73
2019-04-03T20:11:26.407Z,952.73
2019-04-03T20:13:52.708Z,952.73
2019-04-03T20:16:19.103Z,952.72
2019-04-03T20:18:45.417Z,952.62
2019-04-03T20:21:11.735Z,952.74
2019-04-03T20:23:38.043Z,952.72
2019-04-03T20:26:04.766Z,952.67
2019-04-03T20:28:30.896Z,952.78
2019-04-03T20:30:57.153Z,952.78
2019-04-03T20:33:23.498Z,952.68
2019-04-03T20:35:50.289Z,952.75
2019-04-03T20:38:16.160Z,952.71
2019-04-03T20:40:42.477Z,952.79
2019-04-03T20:43:11.209Z,952.84
2019-04-03T20:45:35.146Z,952.78
2019-04-03T20:48:01.584Z,952.79
2019-04-03T20:50:27.935Z,952.80
2019-04-03T20:52:56.806Z,952.83
2019-04-03T20:55:20.541Z,952.83
2019-04-03T20:57:55.255Z,952.92
2019-04-03T21:00:13.243Z,952.90
2019-04-03T21:02:41.180Z,952.85
2019-04-03T21:05:07.723Z,952.84
2019-04-03T21:07:32.186Z,952.87
2019-04-03T21:10:00.550Z,952.99
2019-04-03T21:12:24.843Z,952.91
2019-04-03T21:14:51.165Z,953.02
2019-04-03T21:17:18.881Z,952.92
2019-04-03T21:19:43.858Z,952.91
2019-04-03T21:22:10.194Z,952.93
2019-04-03T21:24:36.640Z,953.03
2019-04-03T21:27:02.965Z,952.98
2019-04-03T21:29:29.269Z,953.03
2019-04-03T21:31:56.751Z,952.94
2019-04-03T21:34:22.041Z,952.99
2019-04-03T21:36:48.356Z,953.06
2019-04-03T21:39:14.690Z,953.11
2019-04-03T21:41:41.020Z,953.13
2019-04-03T21:44:07.388Z,953.10
2019-04-03T21:46:33.679Z,953.14
2019-04-03T21:49:00.006Z,953.20
2019-04-03T21:51:26.350Z,953.28
2019-04-03T21:53:55.771Z,953.27
2019-04-03T21:56:19.037Z,953.28
2019-04-03T21:58:45.395Z,953.20
2019-04-03T22:01:14.475Z,953.22
2019-04-03T22:03:38.023Z,953.16
2019-04-03T22:06:04.373Z,953.23
2019-04-03T22:08:30.704Z,953.16
2019-04-03T22:10:57.025Z,953.16
2019-04-03T22:13:23.347Z,953.17
2019-04-03T22:15:49.686Z,953.23
2019-04-03T22:18:16.029Z,953.15
2019-04-03T22:20:42.332Z,953.20
2019-04-03T22:23:08.689Z,953.15
2019-04-03T22:25:35.064Z,953.11
2019-04-03T22:28:01.365Z,953.19
2019-04-03T22:30:27.674Z,953.14
2019-04-03T22:32:55.708Z,953.16
2019-04-03T22:35:20.302Z,953.21
2019-04-03T22:37:46.613Z,953.22
2019-04-03T22:40:13.007Z,953.20
2019-04-03T22:42:39.327Z,953.30
2019-04-03T22:45:05.638Z,953.21
2019-04-03T22:47:31.945Z,953.23
2019-04-03T22:49:58.260Z,953.22
2019-04-03T22:52:24.625Z,953.19
2019-04-03T22:54:50.936Z,953.16
2019-04-03T22:57:19.404Z,953.17
2019-04-03T22:59:43.593Z,953.10
2019-04-03T23:02:09.901Z,953.12
2019-04-03T23:04:36.249Z,953.17
2019-04-03T23:07:02.581Z,953.20
2019-04-03T23:09:28.881Z,953.13
2019-04-03T23:11:55.218Z,953.14
2019-04-03T23:14:21.562Z,953.16
2019-04-03T23:16:47.873Z,953.06
2019-04-03T23:19:14.184Z,953.13
2019-04-03T23:21:40.559Z,953.12
2019-04-03T23:24:06.855Z,953.07
2019-04-03T23:26:33.205Z,953.05
2019-04-03T23:28:59.511Z,953.07
2019-04-03T23:31:25.818Z,953.11
2019-04-03T23:33:52.146Z,953.09
2019-04-03T23:36:18.467Z,953.14
2019-04-03T23:38:44.809Z,953.06
2019-04-03T23:41:11.113Z,953.10
2019-04-03T23:43:39.270Z,953.10
2019-04-03T23:46:03.744Z,953.03
2019-04-03T23:48:30.092Z,953.00
2019-04-03T23:50:56.499Z,953.01
2019-04-03T23:53:22.805Z,953.10
2019-04-03T23:55:49.107Z,952.98
2019-04-03T23:58:15.497Z,952.98
